Time;durP1;ratioP1;P1;durP2;ratioP2;P2;SDS_P1;SDS_P2;PMS_P1;PMS_P2;Temp;Humidity;BMP_temperature;BMP_pressure;BME280_temperature;BME280_humidity;BME280_pressure;Samples;Min_cycle;Max_cycle;Signal;HPM_P1;HPM_P2
2024/03/26 00:00:42;;;;;;;9.70;5.13;;;;;;;13.54;64.20;99331.53;5073591;28;20052;-77
2024/03/26 00:03:46;;;;;;;11.35;5.15;;;;;;;13.59;65.08;99329.16;5073316;28;20055;-78
2024/03/26 00:06:51;;;;;;;8.30;5.30;;;;;;;13.61;65.58;99329.81;5073438;28;20067;-77
2024/03/26 00:09:56;;;;;;;11.02;6.00;;;;;;;13.65;65.64;99323.88;5073473;28;20387;-77
2024/03/26 00:13:00;;;;;;;15.70;7.55;;;;;;;13.79;65.81;99324.13;5072640;28;20056;-77
2024/03/26 00:16:04;;;;;;;14.20;8.95;;;;;;;13.53;66.04;99314.53;5073768;28;20056;-76
2024/03/26 00:19:12;;;;;;;11.55;7.38;;;;;;;13.39;67.09;99318.00;5072603;28;20494;-76
2024/03/26 00:22:16;;;;;;;10.32;6.63;;;;;;;13.48;66.87;99313.41;5073307;28;20055;-77
2024/03/26 00:25:21;;;;;;;11.10;6.63;;;;;;;13.53;66.62;99314.53;5073028;28;20047;-76
2024/03/26 00:28:26;;;;;;;11.80;5.13;;;;;;;13.55;66.80;99300.88;5072785;28;20506;-77
2024/03/26 00:31:33;;;;;;;12.13;5.50;;;;;;;13.45;66.74;99293.03;5073209;28;20051;-76
2024/03/26 00:34:37;;;;;;;8.70;5.03;;;;;;;13.38;67.42;99294.72;5060839;28;20067;-77
2024/03/26 00:37:41;;;;;;;8.82;5.57;;;;;;;13.23;68.17;99296.53;5064874;28;20052;-78
2024/03/26 00:40:46;;;;;;;9.50;5.05;;;;;;;13.29;68.53;99285.03;5077140;28;20059;-77
2024/03/26 00:43:50;;;;;;;9.50;4.97;;;;;;;13.31;69.12;99284.84;5076183;28;20111;-77
2024/03/26 00:46:55;;;;;;;20.88;10.73;;;;;;;13.29;69.53;99287.72;5077036;28;20063;-77
2024/03/26 00:49:59;;;;;;;11.85;6.88;;;;;;;13.22;70.59;99267.91;5075298;28;20055;-76
2024/03/26 00:53:04;;;;;;;8.43;3.90;;;;;;;13.44;70.77;99264.38;5056658;28;20084;-77
2024/03/26 00:56:08;;;;;;;7.90;3.90;;;;;;;13.45;71.52;99267.91;5056431;28;20056;-77
2024/03/26 00:59:12;;;;;;;4.88;3.67;;;;;;;13.55;71.92;99261.25;5044266;28;20479;-76
2024/03/26 01:02:17;;;;;;;6.78;4.22;;;;;;;13.31;73.30;99258.72;5056635;28;20476;-76
2024/03/26 01:05:22;;;;;;;16.75;7.78;;;;;;;13.56;72.95;99262.94;5032679;28;20052;-78
2024/03/26 01:08:26;;;;;;;16.38;9.15;;;;;;;13.41;72.95;99261.19;5032836;28;20060;-77
2024/03/26 01:11:30;;;;;;;15.55;9.13;;;;;;;13.29;73.75;99249.16;5044154;28;20104;-77
2024/03/26 01:14:35;;;;;;;7.80;4.78;;;;;;;13.21;74.04;99250.03;5056384;28;20353;-77
2024/03/26 01:17:40;;;;;;;10.25;4.53;;;;;;;13.48;71.49;99241.44;5032693;28;20064;-76
2024/03/26 01:20:44;;;;;;;7.18;4.55;;;;;;;13.63;68.01;99253.09;5043905;28;20048;-77
2024/03/26 01:23:49;;;;;;;5.80;3.83;;;;;;;13.57;65.87;99253.84;5056142;28;20044;-77
2024/03/26 01:26:56;;;;;;;9.90;4.35;;;;;;;13.36;65.64;99258.19;5056069;28;20396;-77
2024/03/26 01:30:00;;;;;;;8.38;4.60;;;;;;;13.39;65.14;99250.59;5056173;28;20060;-78
2024/03/26 01:33:04;;;;;;;7.28;4.75;;;;;;;13.42;64.95;99252.94;5056028;28;20052;-79
2024/03/26 01:36:09;;;;;;;9.30;4.30;;;;;;;13.34;64.95;99258.38;5056053;28;20059;-77
2024/03/26 01:39:13;;;;;;;6.80;4.40;;;;;;;13.30;65.50;99254.38;5055822;28;20052;-77
2024/03/26 01:42:17;;;;;;;6.43;4.22;;;;;;;13.44;65.20;99253.59;5043713;28;20044;-77
2024/03/26 01:45:22;;;;;;;6.18;4.35;;;;;;;13.45;64.98;99246.34;5043435;28;20048;-77
2024/03/26 01:48:27;;;;;;;9.82;4.65;;;;;;;13.35;65.48;99226.88;5054944;28;20052;-77
2024/03/26 01:51:34;;;;;;;6.88;4.18;;;;;;;13.38;66.12;99226.53;5062456;28;20063;-77
2024/03/26 01:54:40;;;;;;;10.85;4.43;;;;;;;13.30;66.69;99232.81;5074852;28;20064;-77
2024/03/26 01:57:46;;;;;;;7.13;4.35;;;;;;;13.40;66.39;99233.44;5075648;28;20052;-77
2024/03/26 02:00:51;;;;;;;9.23;4.38;;;;;;;13.59;65.92;99211.34;5075568;28;20505;-77
2024/03/26 02:03:55;;;;;;;6.47;4.05;;;;;;;13.61;65.68;99206.63;5074690;28;20115;-77
2024/03/26 02:07:00;;;;;;;6.80;4.07;;;;;;;13.56;65.37;99211.72;5063157;28;20056;-77
2024/03/26 02:10:07;;;;;;;8.40;4.35;;;;;;;13.40;66.74;99200.22;5075401;28;20534;-77
2024/03/26 02:13:11;;;;;;;8.50;4.50;;;;;;;13.41;66.10;99191.94;5075381;28;20067;-77
2024/03/26 02:16:16;;;;;;;6.82;4.25;;;;;;;13.40;66.80;99200.22;5075347;28;20059;-77
2024/03/26 02:19:24;;;;;;;6.43;4.13;;;;;;;13.44;66.82;99205.06;5074916;28;20411;-76
2024/03/26 02:22:28;;;;;;;7.40;4.22;;;;;;;13.34;67.18;99201.78;5075198;28;20055;-78
2024/03/26 02:25:33;;;;;;;7.05;4.40;;;;;;;13.45;67.43;99192.44;5053220;28;20144;-77
2024/03/26 02:28:37;;;;;;;7.68;4.22;;;;;;;13.42;67.50;99180.16;5041542;28;20048;-77
2024/03/26 02:31:41;;;;;;;6.53;4.20;;;;;;;13.35;68.25;99176.53;5052781;28;20044;-79
2024/03/26 02:34:47;;;;;;;7.90;4.30;;;;;;;13.45;67.82;99177.13;5052924;28;20436;-77
2024/03/26 02:37:51;;;;;;;9.68;4.72;;;;;;;13.39;68.13;99177.81;5053049;28;20052;-77
2024/03/26 02:40:56;;;;;;;6.72;4.25;;;;;;;13.46;67.36;99177.94;5041299;28;20044;-77
2024/03/26 02:44:00;;;;;;;4.85;3.83;;;;;;;13.34;67.42;99177.53;5041224;28;20428;-77
2024/03/26 02:47:04;;;;;;;7.55;4.25;;;;;;;13.48;67.27;99174.03;5041035;28;20060;-77
2024/03/26 02:50:09;;;;;;;8.20;4.50;;;;;;;13.49;66.89;99170.31;5052263;28;20132;-77
2024/03/26 02:53:13;;;;;;;8.60;4.72;;;;;;;13.37;67.53;99162.84;5052430;28;20051;-77
2024/03/26 02:56:17;;;;;;;8.90;4.38;;;;;;;13.19;68.22;99165.84;5069499;28;20047;-77
2024/03/26 02:59:22;;;;;;;6.22;4.10;;;;;;;13.29;68.30;99171.84;5072467;28;20510;-77
2024/03/26 03:02:27;;;;;;;6.47;4.55;;;;;;;13.22;69.53;99167.34;5074060;28;20423;-77
2024/03/26 03:05:31;;;;;;;8.48;5.60;;;;;;;13.34;68.66;99163.22;5074231;28;20056;-77
2024/03/26 03:08:36;;;;;;;8.00;4.65;;;;;;;13.37;68.87;99165.56;5074206;28;20067;-77
2024/03/26 03:11:41;;;;;;;8.45;4.20;;;;;;;13.40;69.10;99146.31;5074190;28;20495;-77
2024/03/26 03:14:46;;;;;;;7.32;4.95;;;;;;;13.42;68.77;99141.59;5073679;28;20047;-77
2024/03/26 03:17:50;;;;;;;6.00;4.10;;;;;;;13.25;69.49;99140.06;5073849;28;20051;-78
2024/03/26 03:20:55;;;;;;;6.72;4.78;;;;;;;13.31;69.22;99132.06;5073517;28;20499;-77
2024/03/26 03:24:00;;;;;;;7.72;4.95;;;;;;;13.28;69.31;99131.63;5074082;28;20055;-77
2024/03/26 03:27:04;;;;;;;7.95;5.15;;;;;;;13.43;68.59;99133.31;5072791;28;20394;-77
2024/03/26 03:30:09;;;;;;;6.93;4.25;;;;;;;13.30;69.68;99125.03;5073838;28;20396;-77
2024/03/26 03:33:25;;;;;;;8.73;4.78;;;;;;;13.26;69.74;99128.25;5073837;28;20059;-78
2024/03/26 03:36:30;;;;;;;6.72;4.53;;;;;;;13.19;70.11;99133.53;5073391;28;20066;-78
2024/03/26 03:39:34;;;;;;;8.60;4.07;;;;;;;13.22;70.80;99137.72;5061502;28;20051;-77
2024/03/26 03:42:39;;;;;;;6.85;4.00;;;;;;;13.32;70.27;99133.75;5061465;28;20479;-77
2024/03/26 03:45:43;;;;;;;7.57;4.72;;;;;;;13.22;70.66;99135.03;5073159;28;20067;-78
2024/03/26 03:48:47;;;;;;;8.48;4.88;;;;;;;13.14;70.95;99140.47;5073666;28;20068;-78
2024/03/26 03:51:51;;;;;;;6.25;4.47;;;;;;;13.20;71.42;99134.38;5060788;28;20055;-78
2024/03/26 03:54:56;;;;;;;5.80;4.22;;;;;;;13.08;71.63;99130.44;5073729;28;20482;-77
2024/03/26 03:58:00;;;;;;;6.35;4.35;;;;;;;13.02;72.88;99137.34;5073823;28;20052;-77
2024/03/26 04:01:05;;;;;;;7.32;4.88;;;;;;;13.21;71.98;99153.03;5073482;28;20383;-77
2024/03/26 04:04:09;;;;;;;9.07;4.38;;;;;;;13.10;72.75;99150.78;5073405;28;20502;-77
2024/03/26 04:07:14;;;;;;;7.93;5.00;;;;;;;13.13;73.32;99144.19;5073592;28;20056;-77
2024/03/26 04:10:19;;;;;;;10.10;4.47;;;;;;;13.36;72.54;99145.00;5073283;28;20062;-77
2024/03/26 04:13:23;;;;;;;8.68;5.13;;;;;;;13.32;72.56;99151.78;5073365;28;20408;-76
2024/03/26 04:16:28;;;;;;;6.97;4.80;;;;;;;13.18;73.08;99153.41;5073021;28;20055;-78
2024/03/26 04:19:32;;;;;;;9.00;4.90;;;;;;;13.24;73.92;99151.84;5072763;28;20534;-77
2024/03/26 04:22:36;;;;;;;8.20;5.10;;;;;;;13.25;73.00;99146.28;5073402;28;20406;-77
2024/03/26 04:25:41;;;;;;;6.75;4.38;;;;;;;13.21;73.92;99141.44;5073467;28;20068;-77
2024/03/26 04:28:46;;;;;;;7.57;4.90;;;;;;;13.21;74.33;99138.75;5073329;28;20060;-77
2024/03/26 04:31:50;;;;;;;8.45;4.82;;;;;;;13.45;73.92;99144.75;5073243;28;20043;-77
2024/03/26 04:34:55;;;;;;;8.43;5.05;;;;;;;13.28;74.21;99158.56;5073082;28;20045;-77
2024/03/26 04:37:59;;;;;;;13.63;5.20;;;;;;;13.27;75.27;99144.25;5072185;28;20404;-77
2024/03/26 04:41:04;;;;;;;7.50;4.57;;;;;;;13.29;75.26;99144.88;5073067;28;20064;-77
2024/03/26 04:44:08;;;;;;;9.05;4.50;;;;;;;13.29;75.96;99150.28;5073061;28;20052;-77
2024/03/26 04:47:13;;;;;;;8.82;4.72;;;;;;;13.31;76.08;99132.06;5072993;28;20052;-77
2024/03/26 04:50:17;;;;;;;7.38;4.80;;;;;;;13.32;75.58;99127.53;5068966;28;20503;-77
2024/03/26 04:53:22;;;;;;;9.50;5.25;;;;;;;13.20;75.66;99123.59;5053018;28;20052;-78
2024/03/26 04:56:27;;;;;;;8.55;4.82;;;;;;;13.09;76.25;99119.47;5052988;28;20071;-78
2024/03/26 04:59:31;;;;;;;11.63;5.15;;;;;;;13.11;76.00;99103.94;5040715;28;20392;-78
2024/03/26 05:02:36;;;;;;;7.95;4.47;;;;;;;13.03;76.10;99126.38;5040779;28;20052;-77
2024/03/26 05:05:40;;;;;;;11.07;5.20;;;;;;;12.98;76.60;99130.63;5040588;28;20048;-77
2024/03/26 05:08:45;;;;;;;7.78;5.50;;;;;;;13.10;76.11;99131.91;5052791;28;20384;-77
2024/03/26 05:11:50;;;;;;;7.90;5.13;;;;;;;12.97;76.56;99137.03;5052837;28;20401;-76
2024/03/26 05:14:55;;;;;;;15.05;8.32;;;;;;;13.14;75.68;99121.59;5052148;28;20044;-77
2024/03/26 05:17:59;;;;;;;8.63;5.88;;;;;;;13.25;74.93;99118.50;5040491;28;20408;-76
2024/03/26 05:21:04;;;;;;;8.13;5.68;;;;;;;12.97;75.96;99124.41;5052904;28;20052;-77
2024/03/26 05:24:08;;;;;;;10.85;5.40;;;;;;;13.03;76.02;99117.47;5032195;28;20055;-77
2024/03/26 05:27:12;;;;;;;7.25;5.28;;;;;;;13.11;76.39;99117.41;5043717;28;20423;-76
2024/03/26 05:30:17;;;;;;;7.25;5.60;;;;;;;13.11;76.44;99122.81;5056103;28;20056;-77
2024/03/26 05:33:21;;;;;;;7.95;5.82;;;;;;;13.22;75.79;99122.38;5056033;28;20059;-77
2024/03/26 05:36:28;;;;;;;9.10;5.18;;;;;;;13.20;76.13;99124.44;5056045;28;20056;-77
2024/03/26 05:39:33;;;;;;;7.43;5.32;;;;;;;13.38;75.46;99132.19;5055682;28;20135;-76
2024/03/26 05:42:37;;;;;;;9.35;5.47;;;;;;;13.36;75.65;99134.22;5056262;28;20052;-77
2024/03/26 05:45:41;;;;;;;9.60;5.57;;;;;;;13.33;76.75;99143.50;5054832;28;20526;-76
2024/03/26 05:48:46;;;;;;;8.95;5.20;;;;;;;13.38;76.34;99137.59;5055672;28;20391;-76
2024/03/26 05:51:51;;;;;;;8.95;5.22;;;;;;;13.29;76.81;99127.88;5055087;28;20124;-76
2024/03/26 05:54:58;;;;;;;9.85;5.38;;;;;;;13.26;77.80;99144.44;5055370;28;20051;-77
2024/03/26 05:58:03;;;;;;;8.23;5.32;;;;;;;13.62;76.46;99151.69;5055494;28;20499;-76
2024/03/26 06:01:08;;;;;;;11.70;5.60;;;;;;;13.47;76.76;99142.72;5055134;28;20068;-75
2024/03/26 06:04:12;;;;;;;8.82;5.43;;;;;;;13.48;76.57;99152.47;5055679;28;20064;-75
2024/03/26 06:07:17;;;;;;;10.45;5.60;;;;;;;13.43;77.60;99162.16;5055539;28;20048;-76
2024/03/26 06:10:21;;;;;;;8.52;4.97;;;;;;;13.46;77.69;99168.00;5055443;28;20040;-75
2024/03/26 06:13:26;;;;;;;7.38;5.05;;;;;;;13.52;77.30;99169.97;5042773;28;20056;-75
2024/03/26 06:16:31;;;;;;;8.25;5.10;;;;;;;13.61;77.21;99165.31;5055229;28;20503;-74
2024/03/26 06:19:35;;;;;;;7.43;5.85;;;;;;;13.52;77.79;99152.94;5055046;28;20392;-74
2024/03/26 06:22:40;;;;;;;9.18;6.22;;;;;;;13.62;77.19;99159.78;5055091;28;20052;-75
2024/03/26 06:25:44;;;;;;;7.72;5.75;;;;;;;13.77;76.42;99165.19;5055075;28;20044;-75
2024/03/26 06:28:49;;;;;;;9.90;5.50;;;;;;;13.80;77.04;99159.41;5054941;28;20048;-79
2024/03/26 06:31:53;;;;;;;10.15;5.32;;;;;;;13.53;77.96;99163.53;5042655;28;20048;-76
2024/03/26 06:34:58;;;;;;;10.05;5.75;;;;;;;13.45;78.36;99162.78;5061293;28;20051;-78
2024/03/26 06:38:05;;;;;;;9.07;5.65;;;;;;;13.56;78.47;99148.84;5048504;28;20122;-78
2024/03/26 06:41:09;;;;;;;9.90;5.93;;;;;;;13.53;78.94;99136.56;5061373;28;20467;-76
2024/03/26 06:44:14;;;;;;;9.57;6.00;;;;;;;13.52;78.53;99124.13;5062409;28;20048;-75
2024/03/26 06:47:20;;;;;;;10.20;7.30;;;;;;;13.57;78.60;99118.19;5054699;28;20052;-76
2024/03/26 06:50:25;;;;;;;11.18;6.72;;;;;;;13.63;79.13;99115.59;5054435;28;20060;-71
2024/03/26 06:53:29;;;;;;;20.85;12.25;;;;;;;13.69;79.63;99109.47;5054720;28;20048;-75
2024/03/26 06:56:34;;;;;;;25.38;11.50;;;;;;;13.88;79.77;99101.84;5054080;28;20060;-72
2024/03/26 06:59:39;;;;;;;12.85;6.95;;;;;;;13.90;79.50;99113.28;5054188;28;20487;-74
2024/03/26 07:02:45;;;;;;;9.60;6.28;;;;;;;13.97;78.25;99114.22;5053871;28;20063;-72
2024/03/26 07:05:49;;;;;;;8.57;6.20;;;;;;;13.98;77.90;99114.03;5054428;28;20068;-73
2024/03/26 07:08:54;;;;;;;8.60;6.18;;;;;;;13.84;77.92;99122.13;5053953;28;20068;-73
2024/03/26 07:11:58;;;;;;;7.10;5.72;;;;;;;13.78;78.39;99120.16;5054259;28;20067;-71
2024/03/26 07:15:06;;;;;;;11.88;6.65;;;;;;;13.77;78.45;99121.19;5054118;28;20357;-71
2024/03/26 07:18:11;;;;;;;10.10;7.13;;;;;;;13.65;78.74;99116.22;5054124;28;20487;-71
2024/03/26 07:21:16;;;;;;;9.43;6.32;;;;;;;13.81;79.37;99114.38;5054235;28;20051;-72
2024/03/26 07:24:20;;;;;;;7.57;5.55;;;;;;;13.68;80.30;99113.19;5054047;28;20051;-71
2024/03/26 07:27:25;;;;;;;9.70;6.25;;;;;;;13.74;80.68;99122.41;5053931;28;20060;-72
2024/03/26 07:30:30;;;;;;;7.65;6.20;;;;;;;13.93;80.22;99139.88;5053970;28;20051;-73
2024/03/26 07:33:50;;;;;;;8.77;6.65;;;;;;;14.10;79.66;99139.50;5053793;28;20380;-74
2024/03/26 07:36:55;;;;;;;9.88;6.50;;;;;;;14.08;79.95;99135.31;5053767;28;20491;-72
2024/03/26 07:40:00;;;;;;;9.15;6.32;;;;;;;14.37;79.40;99139.91;5053370;28;20044;-71
2024/03/26 07:43:05;;;;;;;9.00;5.90;;;;;;;14.52;78.27;99141.53;5053712;28;20044;-74
2024/03/26 07:46:09;;;;;;;9.60;6.82;;;;;;;14.43;78.45;99145.38;5054812;28;20515;-71
2024/03/26 07:49:14;;;;;;;10.90;6.97;;;;;;;14.39;77.88;99149.50;5040955;28;20064;-73
2024/03/26 07:52:18;;;;;;;9.10;6.93;;;;;;;14.52;76.46;99149.63;5041402;28;20151;-71
2024/03/26 07:55:24;;;;;;;11.52;7.47;;;;;;;14.52;76.32;99138.84;5053331;28;20052;-72
2024/03/26 07:58:28;;;;;;;8.15;6.68;;;;;;;14.62;76.52;99130.44;5053489;28;20487;-76
2024/03/26 08:01:33;;;;;;;10.63;7.15;;;;;;;14.68;76.78;99135.09;5041451;28;20060;-75
2024/03/26 08:04:40;;;;;;;8.88;6.88;;;;;;;14.79;76.46;99127.31;5053413;28;20056;-75
2024/03/26 08:07:46;;;;;;;9.38;6.88;;;;;;;14.85;76.59;99129.25;5053129;28;20076;-78
2024/03/26 08:10:51;;;;;;;10.70;7.22;;;;;;;14.97;76.03;99127.72;5053496;28;20396;-75
2024/03/26 08:13:56;;;;;;;9.75;7.03;;;;;;;15.11;75.22;99127.88;5039251;28;20056;-72
2024/03/26 08:17:01;;;;;;;9.60;7.10;;;;;;;15.33;74.33;99116.00;5051631;28;20056;-74
2024/03/26 08:20:09;;;;;;;9.75;6.45;;;;;;;15.29;74.22;99106.59;5052734;28;20056;-74
2024/03/26 08:23:15;;;;;;;8.00;6.70;;;;;;;14.89;75.52;99098.13;5071425;28;20052;-74
2024/03/26 08:26:20;;;;;;;8.95;6.38;;;;;;;15.17;74.45;99095.47;5071636;28;20056;-75
2024/03/26 08:29:25;;;;;;;7.97;6.88;;;;;;;15.17;75.28;99092.78;5029099;28;20052;-75
2024/03/26 08:32:31;;;;;;;12.65;6.65;;;;;;;15.39;74.41;99096.28;5010248;28;20045;-75
2024/03/26 08:35:39;;;;;;;10.30;6.45;;;;;;;15.31;73.23;99096.41;5010152;28;20342;-75
2024/03/26 08:38:44;;;;;;;8.98;6.60;;;;;;;15.26;73.41;99098.88;5009824;28;20060;-76
2024/03/26 08:41:48;;;;;;;7.35;6.47;;;;;;;15.21;74.71;99112.16;4999415;28;20053;-74
2024/03/26 08:44:52;;;;;;;10.70;7.10;;;;;;;15.30;73.74;99101.00;5010850;28;20049;-72
2024/03/26 08:47:58;;;;;;;9.48;7.32;;;;;;;15.49;72.94;99103.06;4999048;28;20069;-74
2024/03/26 08:51:04;;;;;;;8.98;6.97;;;;;;;15.30;73.77;99105.56;5030136;28;20048;-75
2024/03/26 08:54:09;;;;;;;8.30;6.57;;;;;;;15.21;74.64;99107.56;5050126;28;20136;-74
2024/03/26 08:57:15;;;;;;;9.82;7.60;;;;;;;15.21;73.98;99106.75;5070757;28;20454;-74
2024/03/26 09:00:21;;;;;;;8.30;7.10;;;;;;;15.12;74.42;99108.75;5074069;28;20100;-73
2024/03/26 09:03:26;;;;;;;9.10;7.85;;;;;;;15.02;75.43;99104.69;5073685;28;20140;-75
2024/03/26 09:06:31;;;;;;;9.73;8.18;;;;;;;14.97;75.77;99108.81;5074823;28;20052;-74
2024/03/26 09:09:36;;;;;;;9.68;7.43;;;;;;;14.65;76.50;99100.34;5052937;28;20056;-74
2024/03/26 09:12:42;;;;;;;10.82;7.10;;;;;;;14.29;78.70;99095.75;5075845;28;20051;-74
2024/03/26 09:15:47;;;;;;;10.82;8.07;;;;;;;14.36;78.52;99095.03;5086587;28;20047;-74
2024/03/26 09:18:51;;;;;;;12.85;8.18;;;;;;;14.40;78.87;99091.75;5074761;28;20052;-75
2024/03/26 09:21:56;;;;;;;10.70;7.75;;;;;;;14.56;77.85;99090.69;5075416;28;20074;-74
2024/03/26 09:25:01;;;;;;;10.98;8.63;;;;;;;14.50;78.73;99086.91;5075506;28;20055;-73
2024/03/26 09:28:12;;;;;;;12.82;7.95;;;;;;;14.49;79.25;99087.94;5075274;28;20067;-74
2024/03/26 09:31:18;;;;;;;12.55;8.70;;;;;;;14.78;77.73;99079.72;5075996;28;20423;-74
2024/03/26 09:34:25;;;;;;;12.85;8.15;;;;;;;14.70;78.06;99077.16;5075343;28;20056;-73
2024/03/26 09:37:29;;;;;;;10.88;8.38;;;;;;;14.83;77.40;99066.47;5074372;28;20051;-75
2024/03/26 09:40:34;;;;;;;13.00;8.60;;;;;;;14.99;76.99;99071.63;5075316;28;20403;-75
2024/03/26 09:43:39;;;;;;;11.00;8.18;;;;;;;14.96;76.76;99072.00;5074419;28;20059;-75
2024/03/26 09:46:46;;;;;;;11.27;8.75;;;;;;;14.99;77.10;99068.91;5074728;28;20057;-77
2024/03/26 09:49:51;;;;;;;12.75;8.90;;;;;;;14.96;77.60;99058.47;5074801;28;20048;-74
2024/03/26 09:52:57;;;;;;;10.57;8.48;;;;;;;15.13;76.68;99063.63;5054886;28;20044;-74
2024/03/26 09:56:02;;;;;;;11.32;9.00;;;;;;;15.15;76.63;99065.09;5062462;28;20502;-74
2024/03/26 09:59:07;;;;;;;10.95;9.63;;;;;;;15.05;76.64;99058.34;5093896;28;20415;-74
2024/03/26 10:02:12;;;;;;;10.13;8.27;;;;;;;15.04;76.94;99045.84;5059230;28;20055;-73
2024/03/26 10:05:17;;;;;;;10.95;8.57;;;;;;;15.11;77.31;99049.47;5078708;28;20060;-74
2024/03/26 10:08:22;;;;;;;9.63;8.30;;;;;;;15.09;77.27;99046.97;5072258;28;20048;-73
2024/03/26 10:11:52;;;;;;;13.05;8.75;;;;;;;15.08;77.51;99037.19;5073887;28;20497;-77
2024/03/26 10:15:12;;;;;;;10.52;8.40;;;;;;;15.08;77.46;99036.34;5043140;28;20158;-78
2024/03/26 10:18:17;;;;;;;10.98;9.15;;;;;;;15.21;77.56;99026.47;5039958;28;20051;-75
2024/03/26 10:21:21;;;;;;;11.65;9.10;;;;;;;15.16;77.25;99020.00;5038978;28;20067;-74
2024/03/26 10:24:26;;;;;;;11.82;9.15;;;;;;;15.21;76.75;99020.25;5062395;28;20399;-74
2024/03/26 10:27:30;;;;;;;11.35;9.43;;;;;;;14.94;78.09;99022.72;5041603;28;20048;-74
2024/03/26 10:30:37;;;;;;;11.48;9.30;;;;;;;15.09;78.22;99021.78;5054335;28;20044;-75
2024/03/26 10:33:43;;;;;;;12.20;9.93;;;;;;;15.03;77.91;99026.13;5054269;28;20052;-73
2024/03/26 10:36:50;;;;;;;11.00;9.55;;;;;;;15.03;78.41;99019.88;5062718;28;20399;-73
2024/03/26 10:40:08;;;;;;;16.70;10.95;;;;;;;15.04;78.77;99016.13;5074082;28;20071;-74
2024/03/26 10:43:13;;;;;;;13.07;10.60;;;;;;;15.18;78.12;99009.81;5019379;28;20052;-73
2024/03/26 10:46:22;;;;;;;12.75;10.32;;;;;;;15.03;79.30;98998.25;5046014;28;20051;-74
2024/03/26 10:49:29;;;;;;;16.85;10.85;;;;;;;15.06;79.34;99000.59;5050487;28;20052;-74
2024/03/26 10:52:35;;;;;;;10.75;9.18;;;;;;;14.87;80.04;99005.63;5041530;28;20067;-75
2024/03/26 10:55:43;;;;;;;12.40;10.18;;;;;;;14.83;80.16;98996.25;5041976;28;20048;-75
2024/03/26 10:58:48;;;;;;;12.63;9.38;;;;;;;14.85;79.40;99004.16;5054021;28;20408;-75
2024/03/26 11:01:53;;;;;;;12.82;8.90;;;;;;;14.72;80.50;98991.34;5062257;28;20051;-74
2024/03/26 11:04:58;;;;;;;13.02;10.07;;;;;;;15.06;79.52;98984.38;5059007;28;20068;-74
2024/03/26 11:08:03;;;;;;;10.57;9.40;;;;;;;15.02;80.35;98980.38;5071508;28;20051;-74
2024/03/26 11:11:13;;;;;;;11.88;10.25;;;;;;;15.26;79.56;98967.25;5056377;28;20613;-76
2024/03/26 11:14:18;;;;;;;12.65;9.60;;;;;;;15.23;79.82;98964.94;5073769;28;20403;-76
2024/03/26 11:17:24;;;;;;;11.80;10.45;;;;;;;15.20;79.86;98964.50;5084285;28;20055;-74
2024/03/26 11:20:31;;;;;;;10.43;8.55;;;;;;;15.44;78.74;98966.72;5092723;28;20051;-75
2024/03/26 11:23:42;;;;;;;12.85;9.30;;;;;;;15.19;80.22;98957.41;5093563;28;20048;-74
2024/03/26 11:26:46;;;;;;;9.65;8.38;;;;;;;15.49;78.72;98956.19;5093307;28;20055;-74
2024/03/26 11:29:51;;;;;;;10.52;9.43;;;;;;;15.43;79.13;98951.56;5093301;28;20051;-74
2024/03/26 11:32:58;;;;;;;10.15;8.63;;;;;;;15.44;78.56;98948.63;5073879;28;20399;-74
2024/03/26 11:36:04;;;;;;;12.23;8.70;;;;;;;15.46;77.87;98948.47;5053102;28;20055;-74
2024/03/26 11:39:09;;;;;;;9.60;8.60;;;;;;;15.42;79.04;98937.19;5040737;28;20067;-74
2024/03/26 11:42:13;;;;;;;12.38;9.35;;;;;;;15.46;79.47;98934.94;5040701;28;20052;-74
2024/03/26 11:45:18;;;;;;;10.80;8.35;;;;;;;15.37;80.10;98942.38;5053063;28;20508;-75
2024/03/26 11:48:23;;;;;;;10.05;8.10;;;;;;;15.35;80.16;98935.47;5049355;28;20507;-74
2024/03/26 11:51:28;;;;;;;9.32;8.43;;;;;;;15.34;80.59;98931.09;5051724;28;20431;-74
2024/03/26 11:54:33;;;;;;;11.48;8.20;;;;;;;15.57;80.05;98923.56;5051982;28;20056;-75
2024/03/26 11:57:38;;;;;;;9.35;7.93;;;;;;;15.63;78.62;98928.16;5052003;28;20068;-76
2024/03/26 12:00:49;;;;;;;9.25;8.07;;;;;;;15.50;78.92;98928.13;5052684;28;20060;-75
2024/03/26 12:03:58;;;;;;;9.20;7.72;;;;;;;15.45;78.54;98923.31;5039785;28;20056;-76
2024/03/26 12:07:05;;;;;;;9.40;6.55;;;;;;;15.47;78.47;98914.97;5054147;28;20048;-75
2024/03/26 12:10:10;;;;;;;9.43;6.68;;;;;;;15.38;78.41;98916.97;5040262;28;20055;-75
2024/03/26 12:13:14;;;;;;;7.68;6.47;;;;;;;15.26;78.70;98910.47;5052822;28;20060;-75
2024/03/26 12:16:20;;;;;;;8.82;6.72;;;;;;;15.12;79.40;98899.78;5052996;28;20052;-75
2024/03/26 12:19:26;;;;;;;8.55;6.78;;;;;;;15.05;80.58;98905.16;5040321;28;20159;-75
2024/03/26 12:22:32;;;;;;;8.63;6.50;;;;;;;15.17;80.54;98883.81;5052786;28;20495;-75
2024/03/26 12:25:43;;;;;;;7.28;6.35;;;;;;;15.07;81.19;98886.03;5052801;28;20403;-75
2024/03/26 12:28:48;;;;;;;8.95;5.43;;;;;;;14.97;81.81;98884.53;5052620;28;20044;-77
2024/03/26 12:31:53;;;;;;;8.15;5.43;;;;;;;14.56;83.06;98883.63;5041619;28;20067;-75
2024/03/26 12:34:59;;;;;;;6.20;4.90;;;;;;;14.61;83.29;98873.06;5044471;28;20048;-75
2024/03/26 12:38:04;;;;;;;7.60;5.13;;;;;;;14.64;83.86;98867.25;5056596;28;20392;-75
2024/03/26 12:41:09;;;;;;;9.20;4.97;;;;;;;14.59;84.34;98858.91;5056347;28;20151;-74
2024/03/26 12:44:14;;;;;;;5.35;4.35;;;;;;;14.34;84.61;98844.19;5056388;28;20052;-74
2024/03/26 12:47:19;;;;;;;6.82;4.22;;;;;;;14.13;85.36;98849.56;5056148;28;20048;-74
2024/03/26 12:50:24;;;;;;;4.95;3.70;;;;;;;14.10;86.05;98841.84;5054752;28;20115;-74
2024/03/26 12:53:28;;;;;;;6.53;4.57;;;;;;;14.19;86.42;98838.00;5055131;28;20522;-74
2024/03/26 12:56:34;;;;;;;5.05;3.45;;;;;;;14.27;85.84;98837.84;5055777;28;20051;-74
2024/03/26 12:59:38;;;;;;;5.47;3.95;;;;;;;14.52;85.34;98841.81;5043382;28;20428;-74
2024/03/26 13:02:42;;;;;;;5.10;3.85;;;;;;;14.56;84.57;98843.13;5055657;28;20048;-80
2024/03/26 13:05:47;;;;;;;5.03;3.60;;;;;;;14.53;84.91;98834.56;5044649;28;20048;-79
2024/03/26 13:08:52;;;;;;;4.43;3.13;;;;;;;14.51;83.79;98834.78;5044359;28;20059;-77
2024/03/26 13:11:56;;;;;;;4.93;3.25;;;;;;;14.35;85.36;98835.03;5056616;28;20071;-72
2024/03/26 13:15:00;;;;;;;4.55;3.55;;;;;;;14.52;84.34;98833.72;5044569;28;20052;-85
2024/03/26 13:18:05;;;;;;;4.70;3.30;;;;;;;14.49;84.43;98831.44;5056598;28;20059;-75
2024/03/26 13:21:10;;;;;;;4.90;3.20;;;;;;;14.51;84.79;98829.38;5057649;28;20060;-75
2024/03/26 13:24:20;;;;;;;5.78;3.20;;;;;;;14.62;84.79;98825.25;5044720;28;20048;-77
2024/03/26 13:27:26;;;;;;;5.40;3.03;;;;;;;14.58;85.80;98829.41;5043481;28;20055;-79
2024/03/26 13:30:30;;;;;;;6.55;3.22;;;;;;;14.52;85.43;98825.63;5043347;28;20102;-75
2024/03/26 13:33:35;;;;;;;4.97;2.40;;;;;;;14.46;85.22;98820.19;5043399;28;20052;-75
2024/03/26 13:36:41;;;;;;;4.57;3.17;;;;;;;14.38;85.68;98818.47;5055638;28;20055;-73
2024/03/26 13:39:45;;;;;;;4.82;2.63;;;;;;;14.44;85.29;98811.44;5043169;28;20056;-79
2024/03/26 13:42:50;;;;;;;4.57;2.80;;;;;;;14.49;85.55;98798.19;5042641;28;20392;-75
2024/03/26 13:45:54;;;;;;;4.85;3.42;;;;;;;14.54;85.28;98796.53;5046509;28;20047;-72
2024/03/26 13:49:00;;;;;;;4.82;2.88;;;;;;;14.51;85.16;98799.66;5063206;28;20051;-75
2024/03/26 13:52:04;;;;;;;4.68;3.38;;;;;;;14.30;86.09;98778.94;5090105;28;20051;-74
2024/03/26 13:55:10;;;;;;;3.92;2.92;;;;;;;14.40;86.95;98785.84;5095484;28;20043;-73
2024/03/26 13:58:14;;;;;;;7.20;3.47;;;;;;;14.15;87.70;98783.56;5074749;28;20064;-77
2024/03/26 14:01:18;;;;;;;4.40;3.25;;;;;;;13.95;88.63;98790.66;5078297;28;20494;-77
2024/03/26 14:04:28;;;;;;;7.93;3.20;;;;;;;13.98;89.28;98778.66;5074408;28;20048;-81
2024/03/26 14:07:32;;;;;;;5.10;3.50;;;;;;;13.94;88.48;98782.78;5091623;28;20055;-81
2024/03/26 14:11:00;;;;;;;4.82;3.28;;;;;;;14.02;88.96;98779.94;5089039;28;20052;-73
2024/03/26 14:14:04;;;;;;;5.30;3.45;;;;;;;13.81;89.35;98772.69;5115570;28;20058;-77
2024/03/26 14:17:09;;;;;;;5.10;3.55;;;;;;;13.84;89.42;98774.19;5114069;28;20046;-74
2024/03/26 14:20:14;;;;;;;4.38;3.20;;;;;;;13.77;89.03;98765.19;5115289;28;20395;-73
2024/03/26 14:23:18;;;;;;;4.88;3.30;;;;;;;13.75;89.60;98757.31;5090835;28;20506;-75
2024/03/26 14:26:24;;;;;;;4.90;3.88;;;;;;;13.79;89.63;98763.13;5093512;28;20051;-76
2024/03/26 14:29:29;;;;;;;5.85;3.78;;;;;;;13.83;88.93;98757.16;5094737;28;20406;-76